Creek Data

    Home     View Charts     View Raw Data     Messages

ID Distance Battery Voltage Battery Current Internal Temp Internal Humidity External Temp Solar Input rssi snr Time Stamp Record
33519 14.7 3.94 -5 53 40 57 0 -70 8 02/26/2025 08:45 PM 15212
33518 14.7 3.89 -5 53 40 57 0.1 -69 8 02/26/2025 08:30 PM 15211
33517 14.7 3.89 -5 53 40 57 0.1 -69 8 02/26/2025 08:15 PM 15210
33516 14.7 3.89 -5 53 41 56 0 -69 8 02/26/2025 08:00 PM 15209
33515 14.7 3.95 -5 54 41 55 0 -69 8 02/26/2025 07:45 PM 15208
33514 14.7 3.89 -5 55 41 58 0 -69 8 02/26/2025 07:30 PM 15207
33513 14.7 3.89 -5 56 42 57 0 -69 8 02/26/2025 07:15 PM 15206
33512 14.7 3.89 -5 58 42 59 0.1 -70 8 02/26/2025 07:00 PM 15205
33511 14.7 3.95 -5 59 43 61 0.1 -70 8 02/26/2025 06:45 PM 15204
33510 14.7 3.95 -5 60 44 61 0 -70 8 02/26/2025 06:30 PM 15203
33509 14.8 3.95 -5 62 46 61 0.1 -70 7 02/26/2025 06:15 PM 15202
33508 14.8 3.97 0 70 44 65 4.5 -70 7 02/26/2025 05:45 PM 15200
33507 14.8 4.01 10 76 42 71 4.5 -70 8 02/26/2025 05:30 PM 15199
33506 14.9 4.02 61 80 40 74 4.5 -70 7 02/26/2025 05:15 PM 15198
33505 14.9 4.09 65 82 40 70 4.5 -70 8 02/26/2025 05:00 PM 15197
33504 14.9 3.93 9 83 40 71 5.1 -70 8 02/26/2025 04:45 PM 15196
33503 14.9 4.05 9 85 39 71 5.1 -70 8 02/26/2025 04:30 PM 15195
33502 14.9 3.93 0 86 39 72 5.1 -70 8 02/26/2025 04:15 PM 15194
33501 14.9 3.93 0 90 36 71 5.1 -71 7 02/26/2025 04:00 PM 15193
33500 14.9 3.93 9 92 35 72 5.1 -70 8 02/26/2025 03:45 PM 15192
33499 15.0 3.93 10 91 35 73 5.1 -70 8 02/26/2025 03:30 PM 15191
33498 15.0 3.93 10 91 35 76 5.1 -71 8 02/26/2025 03:15 PM 15190
33497 15.0 4.12 6 90 34 75 5.1 -71 7 02/26/2025 03:00 PM 15189
33496 15.0 3.93 10 89 34 73 5.1 -70 7 02/26/2025 02:45 PM 15188
33495 15.0 3.93 0 87 34 73 5.1 -70 8 02/26/2025 02:30 PM 15187